Time;durP1;ratioP1;P1;durP2;ratioP2;P2;SDS_P1;SDS_P2;PMS_P1;PMS_P2;Temp;Humidity;BMP_temperature;BMP_pressure;BME280_temperature;BME280_humidity;BME280_pressure;Samples;Min_cycle;Max_cycle;Signal;HPM_P1;HPM_P2
2021/07/18 00:01:58;;;;;;;7.70;6.68;;;;;;;18.92;83.77;98378.28;5031250;28;20033;-68
2021/07/18 00:04:24;;;;;;;7.45;6.68;;;;;;;19.00;83.62;98383.88;5032184;28;20030;-68
2021/07/18 00:06:49;;;;;;;7.47;6.30;;;;;;;18.97;83.87;98367.59;5030144;28;20040;-68
2021/07/18 00:09:14;;;;;;;7.68;6.93;;;;;;;19.02;83.82;98374.22;5029241;28;20491;-68
2021/07/18 00:11:40;;;;;;;6.95;6.13;;;;;;;19.09;83.47;98374.72;5029627;28;20036;-68
2021/07/18 00:14:08;;;;;;;8.10;6.43;;;;;;;19.10;83.58;98363.38;5030517;28;20112;-69
2021/07/18 00:16:34;;;;;;;7.25;6.65;;;;;;;19.16;83.31;98361.28;5025437;28;20029;-69
2021/07/18 00:18:59;;;;;;;7.22;6.53;;;;;;;19.18;83.53;98362.00;5025666;28;20434;-69
2021/07/18 00:21:25;;;;;;;6.80;6.20;;;;;;;19.20;83.34;98368.88;5026776;28;20129;-70
2021/07/18 00:23:51;;;;;;;8.40;5.80;;;;;;;19.21;83.50;98363.59;5022922;28;20032;-70
2021/07/18 00:26:16;;;;;;;7.60;6.43;;;;;;;19.16;83.37;98376.03;5030238;28;20298;-70
2021/07/18 00:28:42;;;;;;;7.32;6.43;;;;;;;19.22;83.76;98367.03;5033808;28;20489;-70
2021/07/18 00:31:08;;;;;;;6.53;5.93;;;;;;;19.20;83.65;98359.31;5028487;28;20136;-70
2021/07/18 00:33:34;;;;;;;7.72;6.65;;;;;;;19.23;83.80;98355.69;5032958;28;20041;-70
2021/07/18 00:35:59;;;;;;;8.90;6.05;;;;;;;19.29;83.66;98366.59;5029846;28;20038;-70
2021/07/18 00:38:25;;;;;;;6.65;6.15;;;;;;;19.33;83.18;98375.03;5029635;28;20401;-70
2021/07/18 00:40:51;;;;;;;7.13;6.53;;;;;;;19.29;83.52;98370.94;5027439;28;20083;-70
2021/07/18 00:43:16;;;;;;;7.30;6.57;;;;;;;19.34;83.60;98367.16;5030885;28;20041;-70
2021/07/18 00:45:42;;;;;;;7.63;6.90;;;;;;;19.34;84.02;98355.94;5030435;28;20365;-70
2021/07/18 00:48:07;;;;;;;8.27;6.97;;;;;;;19.21;84.61;98375.75;5028578;28;20038;-70
2021/07/18 00:50:33;;;;;;;6.72;5.97;;;;;;;19.21;84.54;98371.41;5027853;28;20070;-70
2021/07/18 00:52:58;;;;;;;8.02;6.85;;;;;;;19.24;84.23;98359.97;5023757;28;20029;-70
2021/07/18 00:55:24;;;;;;;8.77;7.88;;;;;;;19.23;84.34;98360.91;5029718;28;20033;-70
2021/07/18 00:57:51;;;;;;;6.57;5.97;;;;;;;19.22;84.01;98354.06;5028896;28;20034;-70
2021/07/18 01:00:17;;;;;;;6.97;6.30;;;;;;;19.24;83.98;98352.19;5025201;28;20431;-70
2021/07/18 01:02:44;;;;;;;7.35;6.57;;;;;;;19.23;83.81;98358.28;5026453;28;20036;-70
2021/07/18 01:05:12;;;;;;;10.05;6.18;;;;;;;19.23;84.09;98351.34;5031675;28;20032;-70
2021/07/18 01:07:37;;;;;;;8.63;6.80;;;;;;;19.26;83.60;98358.16;5029004;28;20165;-70
2021/07/18 01:10:05;;;;;;;6.57;5.97;;;;;;;19.39;83.17;98351.31;5029439;28;20151;-70
2021/07/18 01:12:32;;;;;;;8.82;6.10;;;;;;;19.43;83.13;98355.41;5032128;28;20041;-71
2021/07/18 01:14:58;;;;;;;10.02;6.15;;;;;;;19.42;83.51;98354.56;5026590;28;20082;-70
2021/07/18 01:17:23;;;;;;;6.45;5.78;;;;;;;19.46;83.07;98353.47;5026465;28;20037;-70
2021/07/18 01:19:49;;;;;;;6.13;5.53;;;;;;;19.49;83.05;98350.69;5029103;28;20072;-71
2021/07/18 01:22:14;;;;;;;6.20;5.60;;;;;;;19.43;83.40;98356.25;5029734;28;20069;-70
2021/07/18 01:24:40;;;;;;;5.55;5.05;;;;;;;19.44;82.85;98365.72;5030921;28;20264;-70
2021/07/18 01:27:06;;;;;;;5.90;5.30;;;;;;;19.48;82.55;98358.56;5026180;28;20099;-70
2021/07/18 01:29:33;;;;;;;9.40;6.00;;;;;;;19.49;82.43;98347.25;5031159;28;20025;-70
2021/07/18 01:31:59;;;;;;;6.47;5.43;;;;;;;19.46;82.48;98352.63;5032289;28;20044;-70
2021/07/18 01:34:24;;;;;;;6.18;5.60;;;;;;;19.44;82.62;98344.06;5027691;28;20032;-70
2021/07/18 01:36:51;;;;;;;8.13;7.30;;;;;;;19.46;82.45;98344.84;5027220;28;20033;-70
2021/07/18 01:39:17;;;;;;;7.10;5.72;;;;;;;19.47;81.95;98360.34;5028308;28;20214;-70
2021/07/18 01:41:43;;;;;;;5.95;5.35;;;;;;;19.45;81.74;98348.34;5030290;28;20045;-70
2021/07/18 01:44:09;;;;;;;6.25;5.50;;;;;;;19.45;81.74;98353.56;5025983;28;20067;-71
2021/07/18 01:46:36;;;;;;;6.60;6.00;;;;;;;19.51;81.80;98345.41;5024601;28;20653;-71
2021/07/18 01:49:13;;;;;;;5.78;5.10;;;;;;;19.55;81.58;98344.28;5024724;28;20033;-71
2021/07/18 01:51:39;;;;;;;5.95;5.45;;;;;;;19.43;82.14;98335.47;5027060;28;20449;-72
2021/07/18 01:54:08;;;;;;;5.88;5.32;;;;;;;19.42;82.13;98338.94;5025694;28;20045;-71
2021/07/18 01:56:34;;;;;;;6.18;5.60;;;;;;;19.43;82.22;98330.25;5041544;28;20021;-71
2021/07/18 01:58:59;;;;;;;6.10;5.50;;;;;;;19.32;82.22;98331.78;5026600;28;20037;-69
2021/07/18 02:01:31;;;;;;;5.95;5.45;;;;;;;19.35;82.25;98331.59;5025697;28;20064;-69
2021/07/18 02:03:58;;;;;;;6.97;6.38;;;;;;;19.34;82.86;98329.94;5030686;28;20034;-71
2021/07/18 02:06:25;;;;;;;7.07;5.63;;;;;;;19.35;83.09;98322.03;5026945;28;20044;-70
2021/07/18 02:08:54;;;;;;;6.18;5.65;;;;;;;19.34;82.42;98333.38;5028290;28;20033;-70
2021/07/18 02:11:21;;;;;;;7.07;5.55;;;;;;;19.39;82.56;98330.50;5031201;28;20045;-70
2021/07/18 02:13:52;;;;;;;7.10;6.40;;;;;;;19.38;82.50;98331.41;5026217;28;20033;-70
2021/07/18 02:16:18;;;;;;;6.22;5.70;;;;;;;19.34;82.69;98329.94;5027851;28;20152;-71
2021/07/18 02:18:45;;;;;;;6.82;6.18;;;;;;;19.27;83.21;98326.00;5023822;28;20047;-71
2021/07/18 02:21:11;;;;;;;8.63;5.50;;;;;;;19.30;83.36;98323.25;5026039;28;20030;-70
2021/07/18 02:23:37;;;;;;;8.02;6.05;;;;;;;19.27;82.93;98334.63;5026437;28;20064;-70
2021/07/18 02:26:03;;;;;;;6.80;6.20;;;;;;;19.23;82.98;98327.09;5027500;28;20056;-70
2021/07/18 02:28:29;;;;;;;5.95;5.35;;;;;;;19.24;83.13;98324.44;5027410;28;20029;-70
2021/07/18 02:30:54;;;;;;;7.88;6.13;;;;;;;19.18;83.57;98336.00;5027596;28;20038;-70
2021/07/18 02:33:20;;;;;;;6.38;5.88;;;;;;;19.25;83.24;98325.28;5024920;28;20112;-71
2021/07/18 02:35:45;;;;;;;7.70;6.82;;;;;;;19.22;83.52;98334.09;5026496;28;20167;-70
2021/07/18 02:38:11;;;;;;;6.60;6.05;;;;;;;19.22;83.54;98341.06;5023952;28;20033;-70
2021/07/18 02:40:36;;;;;;;5.88;5.35;;;;;;;19.25;83.56;98340.88;5023795;28;20068;-70
2021/07/18 02:43:02;;;;;;;7.32;5.78;;;;;;;19.26;83.46;98326.94;5018059;28;20591;-70
2021/07/18 02:45:30;;;;;;;7.32;6.07;;;;;;;19.29;83.19;98330.19;5026581;28;20118;-70
2021/07/18 02:47:55;;;;;;;6.80;6.13;;;;;;;19.28;82.99;98343.28;5026610;28;20378;-69
2021/07/18 02:50:26;;;;;;;6.45;5.85;;;;;;;19.41;82.76;98344.22;5026041;28;20033;-70
2021/07/18 02:52:52;;;;;;;7.32;6.43;;;;;;;19.41;83.03;98337.28;5035712;28;20036;-70
2021/07/18 02:55:18;;;;;;;8.00;6.40;;;;;;;19.50;82.60;98333.31;5032231;28;20037;-70
2021/07/18 02:57:44;;;;;;;7.72;6.70;;;;;;;19.51;82.78;98324.59;5028159;28;20035;-70
2021/07/18 03:00:12;;;;;;;10.18;6.53;;;;;;;19.59;81.90;98335.38;5035662;28;20030;-70
2021/07/18 03:02:38;;;;;;;6.88;6.28;;;;;;;19.57;81.78;98326.81;5027765;28;20045;-71
2021/07/18 03:05:04;;;;;;;6.68;5.97;;;;;;;19.75;81.64;98319.66;5026806;28;20038;-71
2021/07/18 03:07:31;;;;;;;7.40;6.05;;;;;;;19.75;81.24;98320.50;5034582;28;20457;-71
2021/07/18 03:09:57;;;;;;;7.18;6.35;;;;;;;19.83;80.60;98328.69;5025393;28;20043;-71
2021/07/18 03:12:22;;;;;;;7.47;6.80;;;;;;;19.76;81.02;98327.38;5033046;28;20037;-62
2021/07/18 03:14:48;;;;;;;6.03;5.45;;;;;;;19.72;81.17;98317.25;5029523;28;20370;-63
2021/07/18 03:17:13;;;;;;;8.05;6.43;;;;;;;19.74;81.15;98324.03;5029968;28;20079;-62
2021/07/18 03:19:38;;;;;;;7.13;6.47;;;;;;;19.78;81.40;98340.28;5025546;28;20092;-62
2021/07/18 03:22:04;;;;;;;6.70;5.93;;;;;;;19.81;81.07;98338.34;5026741;28;20057;-62
2021/07/18 03:24:30;;;;;;;6.40;5.80;;;;;;;19.76;81.27;98343.00;5032865;28;20065;-63
2021/07/18 03:26:55;;;;;;;7.13;6.18;;;;;;;19.79;81.16;98335.00;5030401;28;20092;-62
2021/07/18 03:29:21;;;;;;;7.28;6.03;;;;;;;19.83;80.62;98365.09;5030307;28;20346;-63
2021/07/18 03:31:46;;;;;;;6.57;5.90;;;;;;;19.89;80.61;98349.13;5029000;28;20072;-62
2021/07/18 03:34:12;;;;;;;6.30;5.68;;;;;;;19.83;80.60;98365.09;5032453;28;20030;-62
2021/07/18 03:36:37;;;;;;;6.35;5.75;;;;;;;19.83;80.69;98359.91;5031302;28;20036;-62
2021/07/18 03:39:03;;;;;;;6.50;5.90;;;;;;;19.94;80.33;98354.84;5030446;28;20203;-63
2021/07/18 03:41:29;;;;;;;6.22;5.60;;;;;;;19.92;79.98;98361.94;5029348;28;20395;-62
2021/07/18 03:43:54;;;;;;;7.40;6.25;;;;;;;20.03;79.25;98361.28;5030849;28;20080;-62
2021/07/18 03:46:20;;;;;;;5.82;5.32;;;;;;;20.00;79.30;98364.06;5028677;28;20117;-63
2021/07/18 03:48:45;;;;;;;5.78;5.28;;;;;;;19.95;79.76;98353.09;5028389;28;20036;-62
2021/07/18 03:51:11;;;;;;;5.90;5.40;;;;;;;19.92;79.69;98356.75;5029361;28;20033;-62
2021/07/18 03:53:36;;;;;;;5.63;5.13;;;;;;;20.00;79.35;98354.50;5030522;28;20363;-63
2021/07/18 03:56:02;;;;;;;5.32;4.93;;;;;;;20.17;78.83;98355.22;5029176;28;20048;-63
2021/07/18 03:58:27;;;;;;;5.90;5.40;;;;;;;19.98;79.30;98361.59;5027665;28;20390;-62
2021/07/18 04:00:53;;;;;;;5.75;5.15;;;;;;;20.06;79.42;98361.09;5028029;28;20044;-62
2021/07/18 04:03:18;;;;;;;5.63;5.13;;;;;;;20.14;78.69;98358.03;5030779;28;20029;-62
2021/07/18 04:05:44;;;;;;;6.03;5.53;;;;;;;20.25;78.62;98348.59;5026344;28;20405;-63
2021/07/18 04:08:09;;;;;;;7.03;4.90;;;;;;;20.22;78.91;98353.16;5031020;28;20359;-63
2021/07/18 04:10:35;;;;;;;7.15;5.00;;;;;;;20.18;78.67;98355.13;5026363;28;20033;-63
2021/07/18 04:13:00;;;;;;;5.53;5.13;;;;;;;20.13;78.71;98351.13;5032669;28;20033;-63
2021/07/18 04:15:26;;;;;;;7.32;5.22;;;;;;;20.16;79.47;98361.34;5032965;28;20033;-62
2021/07/18 04:17:52;;;;;;;8.05;5.50;;;;;;;20.16;79.37;98353.53;5027625;28;20028;-62
2021/07/18 04:20:18;;;;;;;5.75;5.18;;;;;;;20.22;79.10;98360.97;5032115;28;20038;-63
2021/07/18 04:22:44;;;;;;;5.65;5.13;;;;;;;20.12;79.58;98375.50;5032469;28;20061;-62
2021/07/18 04:25:10;;;;;;;5.88;5.38;;;;;;;20.18;79.28;98382.94;5024466;28;20136;-62
2021/07/18 04:27:37;;;;;;;5.63;4.80;;;;;;;20.19;79.71;98382.84;5026298;28;20060;-63
2021/07/18 04:30:07;;;;;;;6.13;5.47;;;;;;;20.24;79.92;98379.97;5029288;28;20037;-62
2021/07/18 04:32:32;;;;;;;6.18;5.45;;;;;;;20.22;79.66;98379.22;5027297;28;20033;-63
2021/07/18 04:34:58;;;;;;;6.03;5.50;;;;;;;20.30;79.84;98385.63;5027381;28;20068;-63
2021/07/18 04:37:23;;;;;;;6.00;5.50;;;;;;;20.32;79.71;98386.41;5030265;28;20017;-63
2021/07/18 04:39:49;;;;;;;5.88;5.38;;;;;;;20.27;80.04;98392.78;5031476;28;20033;-63
2021/07/18 04:42:14;;;;;;;7.80;5.70;;;;;;;20.33;79.71;98389.81;5030930;28;20045;-63
2021/07/18 04:44:39;;;;;;;7.53;5.78;;;;;;;20.37;79.70;98393.91;5030535;28;20056;-63
2021/07/18 04:47:05;;;;;;;6.03;5.40;;;;;;;20.33;79.84;98405.44;5030020;28;20497;-63
2021/07/18 04:49:30;;;;;;;5.82;5.30;;;;;;;20.33;79.93;98402.81;5025819;28;20037;-63
2021/07/18 04:51:57;;;;;;;6.10;5.30;;;;;;;20.34;80.03;98396.69;5026880;28;20029;-63
2021/07/18 04:54:22;;;;;;;7.22;6.10;;;;;;;20.45;79.89;98387.28;5025921;28;20029;-63
2021/07/18 04:56:48;;;;;;;5.53;5.03;;;;;;;20.48;79.80;98392.31;5027172;28;20030;-63
2021/07/18 04:59:14;;;;;;;6.30;5.72;;;;;;;20.53;79.50;98386.81;5029045;28;20116;-63
2021/07/18 05:01:39;;;;;;;7.32;6.15;;;;;;;20.52;79.61;98385.97;5031118;28;20041;-63
2021/07/18 05:04:05;;;;;;;6.13;5.53;;;;;;;20.51;79.51;98391.28;5026619;28;20030;-62
2021/07/18 05:06:31;;;;;;;7.40;5.65;;;;;;;20.49;79.97;98385.34;5027936;28;20037;-63
2021/07/18 05:08:56;;;;;;;6.85;5.40;;;;;;;20.48;79.89;98386.25;5027053;28;20033;-63
2021/07/18 05:11:21;;;;;;;7.65;5.70;;;;;;;20.50;79.85;98387.00;5028471;28;20362;-63
2021/07/18 05:13:49;;;;;;;6.00;5.45;;;;;;;20.64;80.03;98383.53;5028274;28;20049;-63
2021/07/18 05:16:15;;;;;;;6.30;5.70;;;;;;;20.51;80.29;98391.28;5031721;28;20124;-63
2021/07/18 05:18:40;;;;;;;5.53;5.13;;;;;;;20.72;79.75;98396.88;5029166;28;20127;-63
2021/07/18 05:21:06;;;;;;;7.75;4.75;;;;;;;20.76;79.57;98395.75;5028297;28;20048;-63
2021/07/18 05:23:31;;;;;;;7.88;6.20;;;;;;;20.79;79.16;98392.97;5030265;28;20103;-63
2021/07/18 05:25:57;;;;;;;10.82;6.05;;;;;;;20.78;79.56;98392.13;5027598;28;20272;-63
2021/07/18 05:28:22;;;;;;;6.85;5.18;;;;;;;20.82;79.05;98396.22;5026663;28;20465;-63
2021/07/18 05:30:48;;;;;;;6.78;6.15;;;;;;;20.92;79.18;98405.09;5030079;28;20022;-63
2021/07/18 05:33:13;;;;;;;6.55;5.85;;;;;;;20.94;78.86;98392.81;5029323;28;20375;-63
2021/07/18 05:35:39;;;;;;;7.68;6.82;;;;;;;20.95;79.32;98402.31;5029384;28;20029;-63
2021/07/18 05:38:05;;;;;;;7.00;6.35;;;;;;;21.15;78.53;98405.41;5028637;28;20338;-63
2021/07/18 05:40:31;;;;;;;7.47;5.85;;;;;;;21.15;78.44;98405.41;5028401;28;20040;-63
2021/07/18 05:42:57;;;;;;;8.20;7.32;;;;;;;21.11;78.61;98404.75;5027691;28;20033;-63
2021/07/18 05:45:22;;;;;;;7.60;6.25;;;;;;;21.15;78.39;98395.00;5020844;28;20355;-63
2021/07/18 05:47:48;;;;;;;7.63;6.70;;;;;;;21.32;77.50;98397.31;5027690;28;20026;-63
2021/07/18 05:50:14;;;;;;;7.50;6.80;;;;;;;21.38;77.39;98396.94;5028779;28;20060;-62
2021/07/18 05:52:39;;;;;;;7.00;6.30;;;;;;;21.44;76.95;98393.91;5028040;28;20116;-62
2021/07/18 05:55:09;;;;;;;8.70;6.63;;;;;;;21.54;77.00;98400.19;5029301;28;20064;-63
2021/07/18 05:57:35;;;;;;;7.38;6.78;;;;;;;21.53;76.56;98406.31;5029458;28;20382;-63
2021/07/18 06:00:08;;;;;;;7.25;6.25;;;;;;;21.74;75.97;98404.03;5030511;28;20033;-63
2021/07/18 06:02:33;;;;;;;7.15;6.53;;;;;;;21.75;75.79;98405.72;5026753;28;20060;-63
2021/07/18 06:04:59;;;;;;;7.53;6.82;;;;;;;21.69;75.92;98411.34;5030367;28;20391;-63
2021/07/18 06:07:25;;;;;;;8.40;7.07;;;;;;;21.73;75.99;98403.22;5024592;28;20052;-63
2021/07/18 06:09:50;;;;;;;7.85;7.15;;;;;;;21.77;75.48;98403.81;5027722;28;20037;-62
2021/07/18 06:12:16;;;;;;;9.05;7.65;;;;;;;21.68;75.92;98394.88;5028024;28;20034;-62
2021/07/18 06:14:43;;;;;;;8.50;7.63;;;;;;;21.96;75.31;98393.84;5028230;28;20092;-62
2021/07/18 06:17:12;;;;;;;7.88;7.07;;;;;;;22.06;74.36;98383.63;5027730;28;20033;-62
2021/07/18 06:19:39;;;;;;;8.50;7.57;;;;;;;21.90;74.66;98393.41;5024835;28;20387;-62
2021/07/18 06:22:04;;;;;;;8.05;7.30;;;;;;;22.12;73.98;98391.84;5025119;28;20152;-62
2021/07/18 06:24:30;;;;;;;8.55;7.75;;;;;;;21.95;74.16;98394.78;5031083;28;20057;-62
2021/07/18 06:26:55;;;;;;;7.68;7.03;;;;;;;22.03;73.70;98394.25;5028840;28;20056;-62
2021/07/18 06:29:21;;;;;;;8.02;7.25;;;;;;;21.84;74.78;98400.72;5028128;28;20476;-61
2021/07/18 06:31:46;;;;;;;8.00;7.30;;;;;;;21.90;74.19;98403.84;5031319;28;20025;-61
2021/07/18 06:34:12;;;;;;;9.93;7.13;;;;;;;21.95;74.41;98405.22;5028415;28;20078;-61
2021/07/18 06:36:37;;;;;;;9.43;8.15;;;;;;;21.99;74.42;98408.44;5029436;28;20346;-62
2021/07/18 06:39:03;;;;;;;7.45;6.65;;;;;;;21.98;74.42;98407.63;5031825;28;20038;-62
2021/07/18 06:41:28;;;;;;;8.68;7.38;;;;;;;21.83;75.20;98409.47;5028440;28;20476;-62
2021/07/18 06:43:54;;;;;;;8.55;7.80;;;;;;;21.68;75.85;98423.59;5031512;28;20370;-62
2021/07/18 06:46:19;;;;;;;9.45;7.30;;;;;;;21.72;75.75;98432.88;5027827;28;20036;-62
2021/07/18 06:48:44;;;;;;;7.68;7.00;;;;;;;21.79;75.40;98426.28;5032736;28;20025;-62
2021/07/18 06:51:10;;;;;;;7.43;6.75;;;;;;;21.68;76.11;98426.19;5030015;28;20045;-62
2021/07/18 06:53:35;;;;;;;7.95;7.18;;;;;;;21.65;75.53;98428.97;5030799;28;20127;-62
2021/07/18 06:56:01;;;;;;;9.25;7.68;;;;;;;21.69;75.31;98427.00;5026718;28;20124;-62
2021/07/18 06:58:26;;;;;;;7.45;6.85;;;;;;;21.67;75.01;98432.34;5029679;28;20090;-61
2021/07/18 07:00:52;;;;;;;7.22;6.63;;;;;;;21.63;75.37;98430.03;5031794;28;20389;-62
2021/07/18 07:03:17;;;;;;;9.02;7.88;;;;;;;21.56;75.62;98421.78;5032713;28;20027;-62
2021/07/18 07:05:43;;;;;;;8.68;7.88;;;;;;;21.66;75.40;98433.28;5029189;28;20037;-62
2021/07/18 07:08:08;;;;;;;8.18;7.38;;;;;;;21.62;75.79;98430.97;5028454;28;20829;-62
2021/07/18 07:10:34;;;;;;;9.13;8.23;;;;;;;21.77;75.08;98425.53;5029502;28;20037;-62
2021/07/18 07:12:59;;;;;;;10.07;9.07;;;;;;;21.96;74.71;98425.19;5030735;28;20112;-68
2021/07/18 07:15:25;;;;;;;9.18;8.30;;;;;;;21.98;74.16;98432.91;5032001;28;20038;-68
2021/07/18 07:17:50;;;;;;;9.85;8.13;;;;;;;22.07;73.87;98435.72;5033368;28;20398;-68
2021/07/18 07:20:16;;;;;;;8.15;7.35;;;;;;;22.22;72.87;98433.84;5031590;28;20434;-68
2021/07/18 07:22:42;;;;;;;9.45;8.55;;;;;;;22.24;72.96;98437.16;5027818;28;20131;-68
2021/07/18 07:25:09;;;;;;;8.85;7.97;;;;;;;22.22;72.91;98439.91;5025122;28;20468;-69
2021/07/18 07:27:35;;;;;;;10.43;8.07;;;;;;;22.15;73.28;98437.81;5030069;28;20052;-69
2021/07/18 07:30:04;;;;;;;11.63;9.43;;;;;;;22.21;73.35;98440.81;5030103;28;20331;-69
2021/07/18 07:32:29;;;;;;;8.93;8.02;;;;;;;22.20;73.34;98435.69;5034888;28;20289;-69
2021/07/18 07:34:55;;;;;;;8.95;8.25;;;;;;;22.45;72.26;98435.66;5028194;28;20380;-68
2021/07/18 07:37:24;;;;;;;9.27;8.18;;;;;;;22.40;72.05;98429.94;5026153;28;20106;-68
2021/07/18 07:39:53;;;;;;;10.27;7.60;;;;;;;22.57;71.83;98439.22;5033497;28;20433;-68
2021/07/18 07:42:20;;;;;;;9.80;7.30;;;;;;;22.55;71.71;98428.84;5030222;28;20108;-68
2021/07/18 07:44:46;;;;;;;8.48;7.10;;;;;;;22.53;71.50;98435.13;5029811;28;20075;-68
2021/07/18 07:47:11;;;;;;;9.85;8.95;;;;;;;22.43;71.64;98434.09;5033032;28;20033;-68
2021/07/18 07:49:37;;;;;;;9.02;8.00;;;;;;;22.41;72.00;98442.03;5030141;28;20033;-68
2021/07/18 07:52:03;;;;;;;8.73;7.88;;;;;;;22.72;71.18;98441.59;5029252;28;20034;-68
2021/07/18 07:54:28;;;;;;;9.13;8.25;;;;;;;22.51;71.42;98437.00;5030483;28;20040;-68
2021/07/18 07:56:54;;;;;;;8.93;7.90;;;;;;;22.53;71.30;98441.19;5028974;28;20258;-68
2021/07/18 07:59:19;;;;;;;8.27;7.47;;;;;;;22.61;70.87;98440.66;5027287;28;20037;-68
2021/07/18 08:01:45;;;;;;;9.35;7.50;;;;;;;22.56;70.93;98445.38;5026826;28;20095;-68
2021/07/18 08:04:10;;;;;;;7.40;6.70;;;;;;;22.43;71.38;98449.78;5029468;28;20083;-68
2021/07/18 08:06:35;;;;;;;9.10;8.23;;;;;;;22.61;71.08;98454.56;5031937;28;20338;-68
2021/07/18 08:09:01;;;;;;;8.60;7.80;;;;;;;22.72;70.27;98451.22;5030508;28;20029;-68
2021/07/18 08:11:26;;;;;;;8.95;8.13;;;;;;;22.83;70.34;98440.81;5029764;28;20040;-68
2021/07/18 08:13:52;;;;;;;8.15;7.35;;;;;;;22.86;69.85;98437.16;5027682;28;20079;-68
2021/07/18 08:16:17;;;;;;;8.10;7.30;;;;;;;22.99;69.71;98443.19;5030437;28;20434;-68
2021/07/18 08:18:43;;;;;;;9.40;8.43;;;;;;;22.95;69.55;98436.50;5030075;28;20288;-68
2021/07/18 08:21:08;;;;;;;7.90;7.10;;;;;;;22.98;69.36;98450.19;5029497;28;20075;-68
2021/07/18 08:23:34;;;;;;;8.18;7.40;;;;;;;23.07;69.79;98443.44;5026354;28;20407;-68
2021/07/18 08:26:00;;;;;;;8.52;7.82;;;;;;;23.09;69.39;98452.00;5029482;28;20036;-68
2021/07/18 08:28:25;;;;;;;8.80;7.90;;;;;;;22.99;69.52;98453.63;5026337;28;20044;-68
2021/07/18 08:30:51;;;;;;;9.57;7.38;;;;;;;23.14;69.40;98447.28;5026711;28;20606;-69
2021/07/18 08:33:17;;;;;;;8.02;7.32;;;;;;;23.20;69.19;98454.69;5027083;28;20037;-68
2021/07/18 08:35:43;;;;;;;8.38;7.68;;;;;;;23.20;68.72;98447.69;5020648;28;20030;-68
2021/07/18 08:38:08;;;;;;;9.07;7.72;;;;;;;23.30;68.43;98452.25;5022832;28;20037;-68
2021/07/18 08:40:37;;;;;;;8.48;7.68;;;;;;;23.23;68.75;98444.84;5026444;28;20039;-68
2021/07/18 08:43:04;;;;;;;8.80;8.00;;;;;;;23.35;68.49;98455.34;5025388;28;20075;-68
2021/07/18 08:45:30;;;;;;;12.50;8.10;;;;;;;23.35;68.98;98457.94;5026252;28;20067;-69
2021/07/18 08:47:56;;;;;;;9.73;8.82;;;;;;;23.31;68.79;98459.97;5024749;28;20018;-70
2021/07/18 08:50:22;;;;;;;10.10;9.10;;;;;;;23.37;68.70;98454.28;5024970;28;20041;-69
2021/07/18 08:52:57;;;;;;;9.90;8.88;;;;;;;23.46;68.82;98458.03;5022725;28;20103;-68
2021/07/18 08:55:23;;;;;;;;;;;;;;;23.53;68.20;98459.25;5023982;28;20032;-69
2021/07/18 08:57:50;;;;;;;10.45;9.57;;;;;;;23.68;67.66;98463.31;5024009;28;19917;-69
2021/07/18 09:00:15;;;;;;;10.65;8.75;;;;;;;23.83;67.50;98458.72;5022321;28;20057;-69
2021/07/18 09:02:41;;;;;;;8.93;8.02;;;;;;;23.71;67.99;98478.00;5023689;28;20102;-69
2021/07/18 09:05:08;;;;;;;10.30;8.82;;;;;;;23.61;68.15;98467.38;5022270;28;20083;-69
2021/07/18 09:07:46;;;;;;;10.25;9.30;;;;;;;23.74;67.98;98465.50;5027440;28;20064;-69
2021/07/18 09:10:12;;;;;;;10.55;9.45;;;;;;;23.86;67.73;98461.13;5023949;28;20029;-70
2021/07/18 09:12:37;;;;;;;10.57;8.95;;;;;;;24.02;67.10;98462.44;5027900;28;20320;-69
2021/07/18 09:15:04;;;;;;;11.63;10.20;;;;;;;23.89;67.96;98455.66;5030691;28;20036;-69
2021/07/18 09:17:35;;;;;;;11.32;10.13;;;;;;;24.11;67.13;98453.06;5025049;28;20035;-69
2021/07/18 09:20:11;;;;;;;10.50;9.50;;;;;;;24.11;66.76;98448.66;5025604;28;20039;-69
2021/07/18 09:22:37;;;;;;;10.05;9.02;;;;;;;24.06;67.17;98453.41;5026221;28;20053;-69
2021/07/18 09:25:03;;;;;;;10.55;9.23;;;;;;;23.98;67.24;98452.31;5025409;28;20037;-68
2021/07/18 09:27:31;;;;;;;10.63;9.70;;;;;;;24.27;66.97;98453.59;5030880;28;20025;-70
2021/07/18 09:30:15;;;;;;;11.23;9.05;;;;;;;24.09;67.48;98452.34;5030509;28;20041;-70
2021/07/18 09:32:46;;;;;;;9.70;8.82;;;;;;;24.22;67.84;98444.41;5026161;28;20390;-70
2021/07/18 09:35:14;;;;;;;11.60;10.45;;;;;;;24.50;66.78;98441.28;5029233;28;20402;-69
2021/07/18 09:37:42;;;;;;;12.60;10.93;;;;;;;24.79;66.07;98441.59;5024346;28;20036;-69
2021/07/18 09:40:12;;;;;;;12.15;10.98;;;;;;;24.66;66.01;98438.28;5028875;28;20045;-70
2021/07/18 09:42:43;;;;;;;12.88;11.40;;;;;;;24.72;66.25;98432.56;5026307;28;20026;-70
2021/07/18 09:45:23;;;;;;;12.70;10.63;;;;;;;24.64;65.73;98427.94;5027575;28;20078;-70
2021/07/18 09:48:10;;;;;;;10.68;9.57;;;;;;;24.70;65.31;98432.69;5027321;28;20112;-70
2021/07/18 09:50:37;;;;;;;10.93;10.02;;;;;;;25.10;64.20;98426.88;5027692;28;20065;-72
2021/07/18 09:53:10;;;;;;;10.70;9.57;;;;;;;25.10;64.07;98430.34;5023085;28;20041;-73
2021/07/18 09:55:54;;;;;;;10.75;9.77;;;;;;;24.82;64.33;98442.22;5029172;28;20029;-73
2021/07/18 09:58:23;;;;;;;10.27;9.25;;;;;;;24.79;64.76;98431.13;5032039;28;20029;-72
2021/07/18 10:00:49;;;;;;;10.70;9.77;;;;;;;24.78;64.97;98424.22;5028418;28;20033;-72
2021/07/18 10:03:22;;;;;;;9.98;9.02;;;;;;;24.86;64.37;98432.34;5029299;28;20033;-70
2021/07/18 10:06:12;;;;;;;12.52;9.57;;;;;;;25.11;63.70;98425.94;5027263;28;20018;-71
2021/07/18 10:08:40;;;;;;;10.80;9.70;;;;;;;24.86;64.19;98433.19;5025222;28;20022;-70
2021/07/18 10:11:07;;;;;;;11.23;9.32;;;;;;;24.98;64.15;98426.94;5029431;28;20021;-70
2021/07/18 10:13:33;;;;;;;11.77;10.00;;;;;;;24.91;65.21;98438.03;5028671;28;20029;-71
2021/07/18 10:16:00;;;;;;;11.57;10.52;;;;;;;25.36;64.10;98426.44;5027021;28;20177;-70
2021/07/18 10:18:26;;;;;;;9.85;8.95;;;;;;;25.35;63.81;98435.25;5027748;28;20025;-69
2021/07/18 10:20:54;;;;;;;11.02;9.93;;;;;;;25.59;63.32;98429.78;5026926;28;20093;-70
2021/07/18 10:23:22;;;;;;;13.32;9.80;;;;;;;25.73;62.26;98431.28;5026756;28;20261;-71
2021/07/18 10:25:47;;;;;;;10.65;9.75;;;;;;;25.59;62.95;98431.59;5029323;28;20022;-72
2021/07/18 10:28:14;;;;;;;12.55;11.35;;;;;;;25.82;62.53;98423.44;5030118;28;20029;-72
2021/07/18 10:30:44;;;;;;;10.82;9.90;;;;;;;25.75;62.87;98424.09;5027736;28;20113;-73
2021/07/18 10:33:11;;;;;;;12.27;11.00;;;;;;;26.21;61.37;98419.25;5024995;28;20256;-71
2021/07/18 10:35:36;;;;;;;11.25;10.23;;;;;;;25.86;60.98;98426.66;5025685;28;20076;-71
2021/07/18 10:38:18;;;;;;;11.70;10.60;;;;;;;25.69;62.62;98421.97;5026992;28;20061;-71
2021/07/18 10:40:56;;;;;;;11.20;10.13;;;;;;;25.70;62.78;98405.28;5029058;28;20022;-72
2021/07/18 10:43:47;;;;;;;11.38;9.70;;;;;;;25.85;61.98;98409.22;5027364;28;20398;-72
2021/07/18 10:46:15;;;;;;;9.32;8.52;;;;;;;26.13;61.58;98408.53;5023403;28;20044;-71
2021/07/18 10:48:52;;;;;;;10.35;9.45;;;;;;;26.17;60.84;98414.38;5016578;28;20049;-71
2021/07/18 10:51:34;;;;;;;11.60;10.43;;;;;;;26.35;60.42;98407.56;5024777;28;20641;-72
2021/07/18 10:54:20;;;;;;;11.52;10.43;;;;;;;25.97;60.57;98421.31;5024075;28;20022;-72
2021/07/18 10:56:45;;;;;;;11.15;10.15;;;;;;;25.99;61.48;98421.19;5027143;28;20415;-71
2021/07/18 10:59:43;;;;;;;11.80;10.77;;;;;;;26.26;60.13;98411.81;5031095;28;20029;-72
2021/07/18 11:02:16;;;;;;;11.18;10.18;;;;;;;26.02;60.49;98428.81;5028976;28;20071;-71
2021/07/18 11:04:50;;;;;;;11.30;10.20;;;;;;;26.16;60.46;98420.59;5027432;28;20101;-71
2021/07/18 11:07:21;;;;;;;9.77;8.90;;;;;;;26.41;59.45;98419.31;5027375;28;20033;-72
2021/07/18 11:09:47;;;;;;;10.88;9.95;;;;;;;25.88;60.84;98420.31;5028387;28;20029;-71
2021/07/18 11:12:22;;;;;;;10.57;9.45;;;;;;;26.05;60.69;98405.75;5032151;28;20628;-71
2021/07/18 11:14:48;;;;;;;10.30;9.50;;;;;;;26.44;60.12;98416.44;5029381;28;20037;-71
2021/07/18 11:17:29;;;;;;;11.60;10.50;;;;;;;26.39;59.92;98413.38;5028565;28;20025;-71
2021/07/18 11:19:59;;;;;;;11.85;10.75;;;;;;;26.55;59.77;98411.91;5033853;28;20367;-72
2021/07/18 11:23:01;;;;;;;12.20;10.60;;;;;;;26.32;60.21;98406.00;5028946;28;20292;-72
2021/07/18 11:26:02;;;;;;;10.45;9.55;;;;;;;26.19;60.22;98399.28;5027068;28;20366;-71
2021/07/18 11:28:37;;;;;;;10.02;9.00;;;;;;;26.62;59.11;98409.56;4985471;28;20118;-71
2021/07/18 11:31:11;;;;;;;11.20;8.93;;;;;;;26.37;59.23;98408.25;4985752;28;20050;-71
2021/07/18 11:33:45;;;;;;;9.43;8.63;;;;;;;26.68;58.57;98406.41;4988181;28;20328;-71